createdAt,value
2022-08-29T00:01:00.045Z,17.10
2022-08-29T00:03:27.792Z,17.10
2022-08-29T00:05:56.497Z,17.20
2022-08-29T00:08:24.552Z,17.30
2022-08-29T00:10:51.529Z,17.30
2022-08-29T00:13:18.960Z,17.20
2022-08-29T00:15:46.367Z,17.10
2022-08-29T00:18:15.407Z,17.20
2022-08-29T00:20:43.602Z,17.20
2022-08-29T00:23:10.769Z,17.20
2022-08-29T00:25:39.477Z,17.30
2022-08-29T00:28:06.860Z,17.30
2022-08-29T00:30:35.101Z,17.30
2022-08-29T00:33:02.392Z,17.20
2022-08-29T00:35:34.258Z,17.20
2022-08-29T00:38:02.733Z,17.20
2022-08-29T00:40:41.043Z,17.20
2022-08-29T00:43:08.423Z,17.20
2022-08-29T00:45:38.764Z,17.10
2022-08-29T00:48:10.129Z,17.10
2022-08-29T00:50:48.029Z,17.00
2022-08-29T00:53:17.785Z,16.90
2022-08-29T00:55:50.201Z,16.90
2022-08-29T00:58:24.957Z,16.90
2022-08-29T01:00:53.638Z,16.90
2022-08-29T01:03:21.341Z,16.90
2022-08-29T01:05:48.968Z,16.80
2022-08-29T01:08:16.377Z,16.80
2022-08-29T01:11:02.497Z,16.80
2022-08-29T01:13:35.036Z,16.80
2022-08-29T01:16:03.528Z,16.90
2022-08-29T01:18:34.167Z,16.90
2022-08-29T01:21:16.348Z,17.00
2022-08-29T01:24:15.409Z,16.90
2022-08-29T01:26:44.535Z,16.90
2022-08-29T01:29:12.265Z,16.80
2022-08-29T01:31:56.166Z,16.80
2022-08-29T01:34:27.587Z,16.80
2022-08-29T01:37:03.444Z,16.80
2022-08-29T01:39:36.261Z,16.80
2022-08-29T01:42:10.052Z,16.90
2022-08-29T01:44:38.980Z,16.90
2022-08-29T01:47:07.251Z,16.90
2022-08-29T01:49:40.553Z,16.80
2022-08-29T01:52:08.788Z,16.90
2022-08-29T01:54:35.784Z,16.90
2022-08-29T01:57:02.760Z,16.90
2022-08-29T01:59:30.480Z,17.00
2022-08-29T02:01:57.423Z,16.90
2022-08-29T02:04:24.857Z,17.00
2022-08-29T02:06:52.578Z,17.10
2022-08-29T02:09:19.458Z,17.10
2022-08-29T02:11:48.292Z,17.10
2022-08-29T02:14:19.209Z,17.10
2022-08-29T02:16:47.885Z,17.10
2022-08-29T02:19:15.789Z,17.00
2022-08-29T02:21:43.342Z,17.10
2022-08-29T02:24:24.899Z,17.10
2022-08-29T02:26:54.683Z,17.10
2022-08-29T02:29:22.330Z,17.00
2022-08-29T02:31:49.438Z,17.00
2022-08-29T02:34:17.005Z,17.10
2022-08-29T02:36:44.507Z,17.00
2022-08-29T02:39:12.363Z,16.90
2022-08-29T02:41:39.535Z,17.00
2022-08-29T02:44:09.172Z,17.00
2022-08-29T02:46:37.358Z,17.00
2022-08-29T02:49:04.594Z,17.00
2022-08-29T02:51:33.568Z,17.10
2022-08-29T02:54:01.670Z,17.00
2022-08-29T02:56:29.238Z,17.10
2022-08-29T02:58:57.164Z,17.10
2022-08-29T03:01:25.076Z,17.10
2022-08-29T03:03:52.705Z,17.00
2022-08-29T03:06:20.437Z,17.10
2022-08-29T03:08:47.312Z,17.00
2022-08-29T03:11:17.402Z,17.10
2022-08-29T03:13:45.755Z,17.00
2022-08-29T03:16:13.542Z,17.00
2022-08-29T03:18:40.566Z,17.00
2022-08-29T03:21:15.738Z,17.10
2022-08-29T03:23:42.627Z,17.00
2022-08-29T03:26:09.490Z,17.00
2022-08-29T03:28:36.438Z,17.00
2022-08-29T03:31:03.852Z,17.00
2022-08-29T03:33:30.890Z,16.90
2022-08-29T03:35:58.027Z,16.90
2022-08-29T03:38:25.178Z,17.00
2022-08-29T03:40:52.256Z,17.00
2022-08-29T03:43:24.563Z,17.00
2022-08-29T03:45:52.025Z,17.10
2022-08-29T03:48:18.908Z,17.00
2022-08-29T03:50:45.917Z,17.00
2022-08-29T03:53:12.832Z,16.90
2022-08-29T03:55:39.835Z,16.90
2022-08-29T03:58:07.274Z,17.00
2022-08-29T04:00:34.274Z,16.90
2022-08-29T04:03:01.435Z,16.90
2022-08-29T04:05:28.685Z,16.90
2022-08-29T04:07:58.189Z,16.90
2022-08-29T04:10:31.792Z,16.90
2022-08-29T04:12:59.595Z,16.90
2022-08-29T04:15:28.566Z,16.80
2022-08-29T04:17:58.549Z,16.80
2022-08-29T04:20:31.548Z,16.80
2022-08-29T04:22:59.527Z,16.80
2022-08-29T04:25:28.759Z,16.90
2022-08-29T04:27:56.229Z,16.90
2022-08-29T04:30:25.673Z,16.90
2022-08-29T04:32:52.933Z,16.90
2022-08-29T04:35:20.167Z,16.80
2022-08-29T04:37:47.341Z,16.80
2022-08-29T04:40:18.782Z,16.80
2022-08-29T04:42:49.414Z,16.90
2022-08-29T04:45:20.074Z,16.80
2022-08-29T04:47:47.211Z,16.90
2022-08-29T04:50:18.278Z,16.90
2022-08-29T04:52:45.484Z,16.90
2022-08-29T04:55:13.732Z,16.90
2022-08-29T04:57:42.463Z,16.90
2022-08-29T05:00:14.001Z,16.90
2022-08-29T05:02:42.845Z,16.80
2022-08-29T05:05:12.675Z,16.80
2022-08-29T05:07:40.272Z,16.70
2022-08-29T05:10:14.029Z,16.70
2022-08-29T05:12:41.150Z,16.80
2022-08-29T05:15:08.893Z,16.80
2022-08-29T05:17:36.054Z,16.80
2022-08-29T05:20:06.615Z,16.90
2022-08-29T05:22:34.261Z,17.00
2022-08-29T05:25:02.066Z,16.90
2022-08-29T05:27:29.068Z,16.90
2022-08-29T05:29:56.021Z,16.90
2022-08-29T05:32:22.969Z,16.90
2022-08-29T05:34:50.060Z,16.80
2022-08-29T05:37:19.839Z,16.90
2022-08-29T05:39:47.823Z,16.90
2022-08-29T05:42:17.180Z,16.90
2022-08-29T05:44:44.285Z,17.00
2022-08-29T05:47:13.260Z,17.00
2022-08-29T05:49:42.700Z,17.10
2022-08-29T05:52:10.754Z,17.20
2022-08-29T05:54:39.179Z,17.30
2022-08-29T05:57:07.661Z,17.30
2022-08-29T05:59:38.343Z,17.30
2022-08-29T06:02:06.945Z,17.30
2022-08-29T06:04:34.184Z,17.20
2022-08-29T06:07:01.188Z,17.30
2022-08-29T06:09:28.868Z,17.30
2022-08-29T06:11:57.718Z,17.20
2022-08-29T06:14:25.470Z,17.20
2022-08-29T06:16:53.492Z,17.30
2022-08-29T06:19:20.492Z,17.40
2022-08-29T06:21:47.660Z,17.40
2022-08-29T06:24:15.090Z,17.50
2022-08-29T06:26:43.138Z,17.50
2022-08-29T06:29:10.538Z,17.50
2022-08-29T06:31:38.064Z,17.50
2022-08-29T06:34:06.778Z,17.50
2022-08-29T06:36:34.456Z,17.50
2022-08-29T06:39:07.281Z,17.60
2022-08-29T06:41:35.878Z,17.60
2022-08-29T06:44:03.426Z,17.70
2022-08-29T06:46:34.141Z,17.70
2022-08-29T06:49:03.264Z,17.70
2022-08-29T06:51:33.182Z,17.70
2022-08-29T06:54:02.210Z,17.70
2022-08-29T06:56:29.854Z,17.70
2022-08-29T06:58:56.914Z,17.70
2022-08-29T07:01:24.954Z,17.70
2022-08-29T07:03:57.002Z,17.70
2022-08-29T07:06:24.903Z,17.70
2022-08-29T07:08:55.953Z,17.70
2022-08-29T07:11:25.254Z,17.70
2022-08-29T07:13:52.402Z,17.80
2022-08-29T07:16:20.034Z,17.70
2022-08-29T07:18:47.429Z,17.70
2022-08-29T07:21:20.641Z,17.80
2022-08-29T07:23:49.092Z,17.80
2022-08-29T07:26:20.576Z,17.80
2022-08-29T07:28:50.292Z,17.80
2022-08-29T07:31:17.301Z,17.80
2022-08-29T07:33:44.386Z,17.80
2022-08-29T07:36:11.820Z,17.90
2022-08-29T07:38:39.508Z,17.90
2022-08-29T07:41:16.996Z,18.00
2022-08-29T07:43:44.302Z,18.00
2022-08-29T07:46:14.340Z,18.10
2022-08-29T07:48:42.552Z,18.00
2022-08-29T07:51:11.631Z,18.00
2022-08-29T07:53:39.582Z,18.00
2022-08-29T07:56:11.907Z,18.00
2022-08-29T07:58:39.794Z,18.00
2022-08-29T08:01:07.122Z,18.10
2022-08-29T08:03:36.961Z,18.20
2022-08-29T08:06:07.163Z,18.20
2022-08-29T08:08:34.223Z,18.30
2022-08-29T08:11:04.431Z,18.40
2022-08-29T08:13:31.920Z,18.50
2022-08-29T08:15:59.249Z,18.50
2022-08-29T08:18:26.497Z,18.60
2022-08-29T08:20:53.363Z,18.60
2022-08-29T08:23:20.471Z,18.70
2022-08-29T08:25:47.594Z,18.80
2022-08-29T08:28:15.314Z,18.90
2022-08-29T08:30:42.439Z,19.00
2022-08-29T08:33:10.188Z,19.00
2022-08-29T08:35:41.890Z,19.00
2022-08-29T08:38:09.658Z,19.20
2022-08-29T08:40:43.931Z,19.10
2022-08-29T08:43:18.454Z,19.10
2022-08-29T08:45:55.289Z,19.10
2022-08-29T08:48:26.113Z,19.10
2022-08-29T08:51:07.499Z,19.10
2022-08-29T08:53:47.257Z,19.10
2022-08-29T08:56:35.398Z,19.20
2022-08-29T08:59:15.677Z,19.20
2022-08-29T09:02:16.952Z,19.30
2022-08-29T09:04:47.364Z,19.30
2022-08-29T09:07:39.565Z,19.30
2022-08-29T09:10:26.189Z,19.40
2022-08-29T09:13:30.557Z,19.30
2022-08-29T09:16:01.272Z,19.20
2022-08-29T09:18:41.384Z,19.10
2022-08-29T09:21:39.526Z,19.00
2022-08-29T09:24:06.435Z,19.00
2022-08-29T09:26:34.845Z,19.00
2022-08-29T09:29:01.745Z,19.10
2022-08-29T09:31:35.410Z,19.10
2022-08-29T09:34:11.957Z,19.10
2022-08-29T09:36:51.468Z,19.10
2022-08-29T09:39:23.535Z,19.10
2022-08-29T09:41:57.286Z,19.10
2022-08-29T09:44:31.191Z,19.00
2022-08-29T09:47:06.823Z,19.00
2022-08-29T09:49:34.489Z,19.00
2022-08-29T09:52:10.898Z,19.00
2022-08-29T09:54:38.365Z,18.90
2022-08-29T09:57:08.425Z,18.90
2022-08-29T09:59:45.198Z,18.90
2022-08-29T10:02:23.921Z,18.90
2022-08-29T10:05:00.187Z,19.00
2022-08-29T10:07:36.396Z,19.00
2022-08-29T10:10:17.931Z,19.10
2022-08-29T10:12:51.758Z,19.10
2022-08-29T10:15:53.807Z,19.00
2022-08-29T10:18:48.033Z,19.00
2022-08-29T10:21:47.204Z,19.00
2022-08-29T10:24:38.770Z,19.00
2022-08-29T10:27:29.857Z,19.00
2022-08-29T10:30:14.864Z,19.00
2022-08-29T10:32:54.160Z,18.90
2022-08-29T10:35:54.221Z,18.90
2022-08-29T10:38:33.348Z,18.90
2022-08-29T10:41:14.375Z,18.80
2022-08-29T10:43:56.567Z,18.80
2022-08-29T10:46:48.068Z,18.70
2022-08-29T10:49:44.347Z,18.80
2022-08-29T10:52:33.400Z,18.80
2022-08-29T10:55:19.426Z,18.80
2022-08-29T10:58:04.039Z,18.90
2022-08-29T11:00:47.343Z,19.00
2022-08-29T11:03:36.259Z,19.00
2022-08-29T11:06:22.600Z,19.00
2022-08-29T11:09:27.880Z,18.90
2022-08-29T11:12:21.341Z,18.90
2022-08-29T11:15:11.492Z,19.00
2022-08-29T11:17:41.661Z,19.00
2022-08-29T11:20:17.534Z,19.00
2022-08-29T11:22:47.756Z,19.00
2022-08-29T11:25:17.900Z,18.90
2022-08-29T11:27:47.593Z,18.80
2022-08-29T11:30:46.103Z,18.90
2022-08-29T11:33:23.206Z,18.80
2022-08-29T11:35:55.950Z,18.80
2022-08-29T11:38:50.861Z,18.80
2022-08-29T11:41:35.306Z,18.90
2022-08-29T11:44:22.595Z,19.00
2022-08-29T11:46:53.572Z,19.20
2022-08-29T11:49:51.804Z,19.20
2022-08-29T11:52:23.576Z,19.20
2022-08-29T11:55:16.118Z,19.30
2022-08-29T11:57:52.550Z,19.30
2022-08-29T12:00:39.943Z,19.40
2022-08-29T12:03:32.914Z,19.50
2022-08-29T12:06:04.699Z,19.70
2022-08-29T12:08:48.491Z,19.80
2022-08-29T12:11:15.414Z,19.70
2022-08-29T12:13:48.310Z,19.50
2022-08-29T12:16:18.970Z,19.20
2022-08-29T12:18:54.572Z,19.00
2022-08-29T12:21:36.466Z,18.80
2022-08-29T12:24:05.470Z,18.70
2022-08-29T12:26:45.013Z,18.60
2022-08-29T12:29:18.356Z,18.70
2022-08-29T12:32:22.947Z,18.70
2022-08-29T12:34:54.254Z,18.70
2022-08-29T12:37:34.059Z,18.60
2022-08-29T12:40:26.983Z,18.70
2022-08-29T12:43:05.588Z,18.70
2022-08-29T12:45:35.973Z,18.80
2022-08-29T12:48:11.433Z,18.80
2022-08-29T12:50:45.987Z,18.80
2022-08-29T12:53:25.341Z,18.80
2022-08-29T12:55:58.309Z,18.80
2022-08-29T12:58:41.870Z,19.00
2022-08-29T13:01:33.842Z,19.00
2022-08-29T13:04:15.977Z,19.00
2022-08-29T13:06:51.691Z,19.00
2022-08-29T13:09:32.408Z,19.00
2022-08-29T13:12:32.014Z,19.10
2022-08-29T13:15:03.373Z,19.00
2022-08-29T13:17:36.146Z,19.00
2022-08-29T13:20:40.504Z,19.00
2022-08-29T13:23:15.796Z,19.00
2022-08-29T13:26:02.341Z,19.00
2022-08-29T13:28:37.398Z,18.90
2022-08-29T13:31:16.365Z,18.90
2022-08-29T13:33:46.397Z,18.80
2022-08-29T13:36:41.448Z,18.70
2022-08-29T13:39:17.582Z,18.70
2022-08-29T13:41:51.964Z,18.60
2022-08-29T13:44:21.825Z,18.70
2022-08-29T13:46:51.476Z,18.70
2022-08-29T13:49:24.089Z,18.70
2022-08-29T13:51:51.263Z,18.60
2022-08-29T13:54:18.576Z,18.60
2022-08-29T13:56:49.642Z,18.70
2022-08-29T13:59:25.897Z,18.80
2022-08-29T14:02:10.386Z,18.90
2022-08-29T14:04:40.013Z,18.90
2022-08-29T14:07:11.755Z,18.90
2022-08-29T14:09:42.192Z,18.90
2022-08-29T14:12:09.991Z,18.90
2022-08-29T14:14:37.263Z,18.90
2022-08-29T14:17:04.746Z,18.80
2022-08-29T14:19:33.161Z,18.70
2022-08-29T14:22:00.661Z,18.70
2022-08-29T14:24:29.943Z,18.70
2022-08-29T14:27:01.461Z,18.70
2022-08-29T14:29:31.465Z,18.70
2022-08-29T14:31:59.496Z,18.90
2022-08-29T14:34:32.486Z,18.80
2022-08-29T14:37:01.517Z,18.80
2022-08-29T14:39:29.431Z,18.80
2022-08-29T14:41:56.459Z,18.80
2022-08-29T14:44:23.658Z,18.80
2022-08-29T14:46:51.709Z,18.70
2022-08-29T14:49:19.584Z,18.70
2022-08-29T14:51:46.661Z,18.70
2022-08-29T14:54:13.850Z,18.80
2022-08-29T14:56:48.670Z,18.80
2022-08-29T14:59:17.402Z,18.90
2022-08-29T15:01:46.001Z,18.80
2022-08-29T15:04:15.788Z,18.90
2022-08-29T15:06:43.516Z,18.80
2022-08-29T15:09:10.760Z,18.80
2022-08-29T15:11:37.759Z,18.90
2022-08-29T15:14:04.831Z,18.90
2022-08-29T15:16:32.050Z,18.80
2022-08-29T15:21:46.108Z,18.70
2022-08-29T15:24:13.511Z,18.70
2022-08-29T15:26:40.981Z,18.60
2022-08-29T15:29:08.940Z,18.60
2022-08-29T15:31:35.915Z,18.70
2022-08-29T15:34:03.000Z,18.60
2022-08-29T15:36:30.006Z,18.70
2022-08-29T15:38:57.090Z,18.70
2022-08-29T15:41:23.983Z,18.70
2022-08-29T15:43:50.848Z,18.70
2022-08-29T15:46:18.546Z,18.70
2022-08-29T15:48:45.615Z,18.80
2022-08-29T15:51:12.614Z,18.90
2022-08-29T15:53:39.661Z,19.00
2022-08-29T15:56:07.079Z,19.00
2022-08-29T15:58:34.016Z,19.00
2022-08-29T16:01:00.856Z,18.90
2022-08-29T16:03:27.966Z,18.80
2022-08-29T16:05:54.861Z,18.80
2022-08-29T16:08:22.457Z,18.80
2022-08-29T16:10:56.648Z,18.80
2022-08-29T16:13:23.517Z,18.80
2022-08-29T16:15:50.563Z,18.80
2022-08-29T16:18:17.572Z,18.80
2022-08-29T16:20:44.553Z,18.80
2022-08-29T16:23:11.668Z,18.80
2022-08-29T16:25:39.444Z,18.70
2022-08-29T16:28:06.672Z,18.90
2022-08-29T16:30:33.727Z,19.00
2022-08-29T16:33:01.666Z,18.90
2022-08-29T16:35:28.507Z,19.00
2022-08-29T16:38:02.475Z,19.00
2022-08-29T16:40:31.577Z,18.90
2022-08-29T16:42:58.579Z,18.90
2022-08-29T16:45:25.593Z,18.90
2022-08-29T16:47:57.237Z,19.00
2022-08-29T16:50:24.518Z,19.00
2022-08-29T16:52:51.392Z,18.90
2022-08-29T16:55:18.441Z,18.90
2022-08-29T16:58:05.240Z,18.70
2022-08-29T17:00:32.519Z,18.70
2022-08-29T17:02:59.781Z,18.70
2022-08-29T17:05:27.241Z,18.80
2022-08-29T17:07:54.057Z,18.80
2022-08-29T17:10:20.930Z,18.80
2022-08-29T17:12:47.797Z,18.80
2022-08-29T17:15:14.777Z,18.80
2022-08-29T17:17:41.657Z,18.90
2022-08-29T17:20:10.819Z,18.90
2022-08-29T17:22:37.838Z,18.80
2022-08-29T17:25:05.352Z,18.80
2022-08-29T17:27:32.287Z,18.70
2022-08-29T17:29:59.181Z,18.70
2022-08-29T17:32:26.110Z,18.60
2022-08-29T17:34:52.993Z,18.70
2022-08-29T17:37:19.956Z,18.60
2022-08-29T17:39:46.817Z,18.50
2022-08-29T17:42:14.552Z,18.60
2022-08-29T17:44:41.810Z,18.60
2022-08-29T17:47:08.759Z,18.50
2022-08-29T17:49:35.677Z,18.60
2022-08-29T17:52:03.009Z,18.40
2022-08-29T17:54:29.933Z,18.50
2022-08-29T17:56:59.200Z,18.40
2022-08-29T17:59:28.933Z,18.40
2022-08-29T18:01:57.664Z,18.40
2022-08-29T18:04:26.330Z,18.30
2022-08-29T18:06:57.128Z,18.40
2022-08-29T18:09:24.829Z,18.30
2022-08-29T18:11:53.552Z,18.30
2022-08-29T18:14:23.688Z,18.20
2022-08-29T18:16:52.112Z,18.10
2022-08-29T18:19:21.516Z,18.10
2022-08-29T18:21:50.119Z,18.10
2022-08-29T18:24:17.842Z,18.00
2022-08-29T18:26:48.666Z,17.90
2022-08-29T18:29:16.090Z,17.90
2022-08-29T18:31:43.371Z,17.80
2022-08-29T18:34:11.222Z,17.90
2022-08-29T18:36:42.311Z,17.90
2022-08-29T18:39:10.075Z,17.80
2022-08-29T18:41:37.556Z,17.70
2022-08-29T18:44:04.892Z,17.60
2022-08-29T18:46:33.360Z,17.60
2022-08-29T18:49:00.445Z,17.50
2022-08-29T18:51:27.731Z,17.50
2022-08-29T18:53:55.048Z,17.40
2022-08-29T18:56:22.040Z,17.50
2022-08-29T18:58:54.577Z,17.40
2022-08-29T19:01:28.506Z,17.30
2022-08-29T19:03:57.782Z,17.30
2022-08-29T19:06:27.601Z,17.20
2022-08-29T19:08:56.276Z,17.10
2022-08-29T19:11:23.398Z,17.10
2022-08-29T19:13:52.382Z,17.00
2022-08-29T19:16:21.746Z,17.00
2022-08-29T19:18:48.770Z,16.80
2022-08-29T19:21:15.963Z,16.90
2022-08-29T19:23:46.002Z,16.80
2022-08-29T19:26:38.040Z,16.70
2022-08-29T19:29:12.489Z,16.80
2022-08-29T19:31:45.501Z,16.60
2022-08-29T19:34:13.211Z,16.60
2022-08-29T19:36:42.914Z,16.50
2022-08-29T19:39:14.073Z,16.40
2022-08-29T19:41:40.951Z,16.30
2022-08-29T19:44:07.982Z,16.30
2022-08-29T19:46:36.074Z,16.10
2022-08-29T19:51:33.831Z,15.80
2022-08-29T19:54:03.589Z,15.80
2022-08-29T19:56:33.256Z,15.60
2022-08-29T19:59:00.540Z,15.60
2022-08-29T20:01:28.132Z,15.50
2022-08-29T20:03:55.518Z,15.40
2022-08-29T20:06:23.210Z,15.30
2022-08-29T20:08:50.316Z,15.40
2022-08-29T20:11:21.883Z,15.30
2022-08-29T20:13:51.020Z,15.30
2022-08-29T20:16:21.377Z,15.30
2022-08-29T20:18:49.330Z,15.40
2022-08-29T20:21:17.276Z,15.50
2022-08-29T20:23:49.902Z,15.50
2022-08-29T20:26:22.628Z,15.40
2022-08-29T20:28:51.879Z,15.40
2022-08-29T20:31:19.635Z,15.40
2022-08-29T20:33:48.361Z,15.30
2022-08-29T20:36:38.996Z,15.30
2022-08-29T20:39:07.801Z,15.30
2022-08-29T20:41:34.733Z,15.30
2022-08-29T20:44:06.971Z,15.20
2022-08-29T20:46:38.105Z,15.20
2022-08-29T20:49:04.972Z,15.20
2022-08-29T20:51:35.103Z,15.00
2022-08-29T20:54:02.124Z,14.90
2022-08-29T20:56:29.095Z,14.90
2022-08-29T20:58:55.956Z,14.80
2022-08-29T21:01:23.055Z,14.80
2022-08-29T21:04:08.587Z,14.70
2022-08-29T21:06:36.102Z,14.60
2022-08-29T21:09:03.391Z,14.50
2022-08-29T21:11:30.198Z,14.50
2022-08-29T21:13:57.213Z,14.50
2022-08-29T21:16:24.197Z,14.40
2022-08-29T21:18:52.936Z,14.30
2022-08-29T21:21:24.481Z,14.20
2022-08-29T21:23:51.980Z,14.10
2022-08-29T21:26:18.930Z,14.10
2022-08-29T21:28:47.242Z,14.10
2022-08-29T21:31:15.474Z,14.10
2022-08-29T21:33:45.135Z,14.00
2022-08-29T21:36:18.855Z,14.00
2022-08-29T21:38:47.136Z,14.00
2022-08-29T21:41:14.885Z,13.90
2022-08-29T21:43:42.436Z,13.90
2022-08-29T21:46:43.762Z,13.80
2022-08-29T21:49:15.333Z,13.80
2022-08-29T21:51:42.646Z,13.70
2022-08-29T21:54:13.598Z,13.70
2022-08-29T21:56:41.619Z,13.70
2022-08-29T21:59:09.221Z,13.70
2022-08-29T22:01:39.073Z,13.70
2022-08-29T22:04:09.509Z,13.70
2022-08-29T22:06:44.171Z,13.70
2022-08-29T22:09:16.911Z,13.70
2022-08-29T22:11:46.129Z,13.70
2022-08-29T22:14:13.545Z,13.60
2022-08-29T22:16:40.608Z,13.60
2022-08-29T22:19:13.841Z,13.60
2022-08-29T22:21:44.886Z,13.50
2022-08-29T22:24:13.837Z,13.50
2022-08-29T22:26:41.601Z,13.60
2022-08-29T22:29:11.946Z,13.50
2022-08-29T22:31:39.263Z,13.50
2022-08-29T22:34:10.027Z,13.40
2022-08-29T22:36:36.874Z,13.50
2022-08-29T22:39:04.373Z,13.40
2022-08-29T22:41:31.332Z,13.40
2022-08-29T22:44:59.922Z,13.40
2022-08-29T22:46:48.153Z,13.40
2022-08-29T22:49:16.178Z,13.40
2022-08-29T22:51:42.999Z,13.30
2022-08-29T22:54:28.452Z,13.30
2022-08-29T22:56:55.374Z,13.30
2022-08-29T22:59:22.724Z,13.30
2022-08-29T23:01:49.704Z,13.30
2022-08-29T23:04:16.802Z,13.40
2022-08-29T23:06:43.719Z,13.30
2022-08-29T23:09:11.156Z,13.30
2022-08-29T23:11:38.179Z,13.40
2022-08-29T23:14:05.642Z,13.40
2022-08-29T23:16:33.534Z,13.40
2022-08-29T23:19:01.446Z,13.40
2022-08-29T23:21:29.650Z,13.40
2022-08-29T23:23:58.785Z,13.30
2022-08-29T23:26:26.285Z,13.30
2022-08-29T23:28:53.817Z,13.30
2022-08-29T23:31:22.518Z,13.30
2022-08-29T23:33:49.970Z,13.30
2022-08-29T23:36:17.473Z,13.30
2022-08-29T23:38:44.770Z,13.30
2022-08-29T23:41:13.552Z,13.20
2022-08-29T23:43:40.480Z,13.20
2022-08-29T23:46:07.708Z,13.20
2022-08-29T23:48:35.312Z,13.20
2022-08-29T23:51:08.046Z,13.20
2022-08-29T23:53:35.663Z,13.20
2022-08-29T23:56:12.371Z,13.10
2022-08-29T23:58:40.000Z,13.10
